createdAt,value
2019-02-24T00:02:12.976Z,100995.61
2019-02-24T00:04:43.945Z,100989.80
2019-02-24T00:07:14.743Z,100993.47
2019-02-24T00:09:45.638Z,100985.31
2019-02-24T00:12:16.634Z,100981.12
2019-02-24T00:14:47.815Z,100976.20
2019-02-24T00:17:18.608Z,100975.39
2019-02-24T00:19:49.478Z,100966.88
2019-02-24T00:22:20.512Z,100968.32
2019-02-24T00:24:51.328Z,100964.28
2019-02-24T00:27:22.206Z,100954.72
2019-02-24T00:29:53.092Z,100958.85
2019-02-24T00:32:23.992Z,100959.84
2019-02-24T00:34:56.838Z,100953.28
2019-02-24T00:37:28.618Z,100955.28
2019-02-24T00:39:59.422Z,100959.27
2019-02-24T00:42:30.706Z,100951.14
2019-02-24T00:45:02.021Z,100948.05
2019-02-24T00:47:33.186Z,100943.92
2019-02-24T00:50:04.099Z,100943.11
2019-02-24T00:52:35.525Z,100944.23
2019-02-24T00:55:06.799Z,100947.11
2019-02-24T00:57:37.662Z,100943.02
2019-02-24T01:00:09.290Z,100952.79
2019-02-24T01:02:41.702Z,100958.29
2019-02-24T01:05:12.489Z,100952.86
2019-02-24T01:07:43.529Z,100955.22
2019-02-24T01:10:14.454Z,100959.25
2019-02-24T01:12:45.258Z,100964.27
2019-02-24T01:15:16.207Z,100960.22
2019-02-24T01:17:47.033Z,100961.52
2019-02-24T01:20:17.929Z,100964.07
2019-02-24T01:22:48.707Z,100967.50
2019-02-24T01:25:19.491Z,100961.32
2019-02-24T01:27:50.359Z,100964.94
2019-02-24T01:30:21.299Z,100970.88
2019-02-24T01:32:52.202Z,100954.84
2019-02-24T01:35:23.037Z,100960.03
2019-02-24T01:37:54.225Z,100950.73
2019-02-24T01:40:25.113Z,100952.79
2019-02-24T01:42:55.938Z,100944.39
2019-02-24T01:45:26.933Z,100943.39
2019-02-24T01:47:57.735Z,100942.36
2019-02-24T01:50:28.569Z,100936.78
2019-02-24T01:52:59.450Z,100940.55
2019-02-24T01:55:30.232Z,100939.08
2019-02-24T01:58:01.162Z,100938.47
2019-02-24T02:00:32.345Z,100948.59
2019-02-24T02:03:03.168Z,100944.39
2019-02-24T02:05:34.106Z,100941.17
2019-02-24T02:08:05.859Z,100941.80
2019-02-24T02:10:36.843Z,100944.34
2019-02-24T02:13:07.960Z,100946.87
2019-02-24T02:15:38.891Z,100944.21
2019-02-24T02:18:10.659Z,100949.91
2019-02-24T02:20:41.794Z,100947.98
2019-02-24T02:23:12.619Z,100952.06
2019-02-24T02:25:43.619Z,100953.52
2019-02-24T02:28:14.494Z,100963.33
2019-02-24T02:30:45.544Z,100965.34
2019-02-24T02:33:16.361Z,100970.31
2019-02-24T02:35:47.309Z,100975.36
2019-02-24T02:38:18.995Z,100975.96
2019-02-24T02:40:49.787Z,100982.82
2019-02-24T02:43:20.730Z,100977.04
2019-02-24T02:45:51.576Z,100975.84
2019-02-24T02:48:22.441Z,100976.89
2019-02-24T02:50:53.453Z,100973.03
2019-02-24T02:53:24.335Z,100971.45
2019-02-24T02:55:55.231Z,100976.64
2019-02-24T02:58:26.211Z,100973.13
2019-02-24T03:00:57.096Z,100974.09
2019-02-24T03:03:28.067Z,100978.01
2019-02-24T03:06:17.814Z,100981.76
2019-02-24T03:08:50.110Z,100977.39
2019-02-24T03:11:21.017Z,100976.15
2019-02-24T03:13:52.025Z,100971.62
2019-02-24T03:16:26.115Z,100972.49
2019-02-24T03:18:56.954Z,100973.82
2019-02-24T03:21:27.872Z,100973.24
2019-02-24T03:23:58.749Z,100973.36
2019-02-24T03:26:29.521Z,100972.75
2019-02-24T03:29:04.185Z,100971.55
2019-02-24T03:31:34.184Z,100979.02
2019-02-24T03:34:05.048Z,100967.76
2019-02-24T03:36:35.931Z,100974.52
2019-02-24T03:39:07.460Z,100973.67
2019-02-24T03:41:38.324Z,100973.44
2019-02-24T03:44:09.215Z,100975.63
2019-02-24T03:46:39.989Z,100985.06
2019-02-24T03:49:11.279Z,100989.35
2019-02-24T03:51:42.196Z,100989.95
2019-02-24T03:54:13.262Z,100982.42
2019-02-24T03:56:44.155Z,100987.95
2019-02-24T03:59:15.497Z,100984.71
2019-02-24T04:01:46.462Z,100984.92
2019-02-24T04:04:17.534Z,100990.07
2019-02-24T04:06:48.337Z,100990.92
2019-02-24T04:09:19.951Z,100996.02
2019-02-24T04:11:50.843Z,100993.69
2019-02-24T04:14:22.013Z,101001.35
2019-02-24T04:16:52.917Z,101009.83
2019-02-24T04:19:23.801Z,101009.29
2019-02-24T04:21:54.675Z,101008.50
2019-02-24T04:24:25.569Z,101015.63
2019-02-24T04:26:56.350Z,101018.05
2019-02-24T04:29:27.289Z,101025.34
2019-02-24T04:31:58.128Z,101022.81
2019-02-24T04:34:29.105Z,101022.07
2019-02-24T04:37:00.016Z,101031.73
2019-02-24T04:39:30.904Z,101036.52
2019-02-24T04:42:01.478Z,101039.25
2019-02-24T04:44:32.391Z,101039.20
2019-02-24T04:47:03.136Z,101047.45
2019-02-24T04:49:34.038Z,101058.56
2019-02-24T04:52:04.827Z,101060.44
2019-02-24T04:54:35.975Z,101067.23
2019-02-24T04:57:06.911Z,101075.41
2019-02-24T04:59:37.806Z,101073.81
2019-02-24T05:02:08.586Z,101075.14
2019-02-24T05:04:39.636Z,101077.61
2019-02-24T05:07:10.450Z,101076.19
2019-02-24T05:09:41.594Z,101075.38
2019-02-24T05:12:12.443Z,101080.45
2019-02-24T05:14:43.826Z,101088.25
2019-02-24T05:17:14.539Z,101087.45
2019-02-24T05:19:45.390Z,101079.78
2019-02-24T05:22:16.183Z,101082.80
2019-02-24T05:24:47.155Z,101080.20
2019-02-24T05:27:18.065Z,101076.88
2019-02-24T05:29:49.064Z,101079.58
2019-02-24T05:32:19.851Z,101081.72
2019-02-24T05:34:50.535Z,101083.69
2019-02-24T05:37:21.466Z,101091.34
2019-02-24T05:39:52.304Z,101088.30
2019-02-24T05:42:25.195Z,101092.62
2019-02-24T05:44:56.027Z,101095.72
2019-02-24T05:47:26.914Z,101102.17
2019-02-24T05:49:57.793Z,101105.28
2019-02-24T05:52:28.735Z,101104.75
2019-02-24T05:54:59.934Z,101109.30
2019-02-24T05:57:30.874Z,101107.75
2019-02-24T06:00:02.322Z,101105.89
2019-02-24T06:02:33.774Z,101106.02
2019-02-24T06:05:04.878Z,101107.41
2019-02-24T06:07:35.639Z,101112.02
2019-02-24T06:10:06.722Z,101111.32
2019-02-24T06:12:37.634Z,101105.91
2019-02-24T06:15:08.717Z,101113.67
2019-02-24T06:17:39.495Z,101119.20
2019-02-24T06:20:10.403Z,101121.66
2019-02-24T06:22:41.171Z,101122.98
2019-02-24T06:25:12.165Z,101121.95
2019-02-24T06:27:42.956Z,101126.81
2019-02-24T06:30:14.066Z,101130.86
2019-02-24T06:32:44.936Z,101133.68
2019-02-24T06:35:16.916Z,101140.77
2019-02-24T06:37:47.733Z,101141.30
2019-02-24T06:40:18.821Z,101146.73
2019-02-24T06:42:50.689Z,101152.67
2019-02-24T06:45:21.473Z,101155.98
2019-02-24T06:47:52.364Z,101159.53
2019-02-24T06:50:23.240Z,101166.53
2019-02-24T06:52:54.025Z,101175.02
2019-02-24T06:55:24.702Z,101172.50
2019-02-24T06:57:55.536Z,101183.66
2019-02-24T07:00:26.923Z,101182.69
2019-02-24T07:02:57.838Z,101181.95
2019-02-24T07:05:28.775Z,101189.78
2019-02-24T07:07:59.555Z,101182.18
2019-02-24T07:10:30.251Z,101193.02
2019-02-24T07:13:01.186Z,101189.96
2019-02-24T07:15:32.007Z,101197.39
2019-02-24T07:18:02.997Z,101202.22
2019-02-24T07:20:33.926Z,101210.16
2019-02-24T07:23:04.824Z,101215.52
2019-02-24T07:25:35.863Z,101221.73
2019-02-24T07:28:06.698Z,101230.94
2019-02-24T07:30:37.788Z,101229.91
2019-02-24T07:33:08.682Z,101228.16
2019-02-24T07:35:39.564Z,101230.50
2019-02-24T07:38:10.482Z,101228.41
2019-02-24T07:40:41.642Z,101234.45
2019-02-24T07:43:12.551Z,101244.25
2019-02-24T07:45:43.436Z,101246.95
2019-02-24T07:48:14.310Z,101243.24
2019-02-24T07:50:45.221Z,101251.83
2019-02-24T07:53:15.979Z,101247.97
2019-02-24T07:55:46.869Z,101249.34
2019-02-24T07:58:17.666Z,101244.03
2019-02-24T08:00:48.638Z,101250.16
2019-02-24T08:03:19.455Z,101252.29
2019-02-24T08:05:50.314Z,101247.43
2019-02-24T08:08:21.196Z,101254.16
2019-02-24T08:10:52.431Z,101257.25
2019-02-24T08:13:23.290Z,101259.58
2019-02-24T08:15:54.382Z,101258.92
2019-02-24T08:18:25.283Z,101270.33
2019-02-24T08:20:56.211Z,101271.06
2019-02-24T08:23:27.051Z,101270.34
2019-02-24T08:25:57.951Z,101277.30
2019-02-24T08:28:28.825Z,101269.20
2019-02-24T08:31:00.007Z,101269.31
2019-02-24T08:33:30.789Z,101272.73
2019-02-24T08:36:02.418Z,101268.86
2019-02-24T08:38:33.193Z,101272.52
2019-02-24T08:41:04.023Z,101267.94
2019-02-24T08:43:34.896Z,101269.63
2019-02-24T08:46:05.650Z,101270.36
2019-02-24T08:48:36.611Z,101279.21
2019-02-24T08:51:07.505Z,101277.41
2019-02-24T08:53:38.421Z,101277.64
2019-02-24T08:56:09.679Z,101282.49
2019-02-24T08:58:40.485Z,101281.29
2019-02-24T09:01:11.369Z,101277.16
2019-02-24T09:03:43.187Z,101278.02
2019-02-24T09:06:14.085Z,101280.77
2019-02-24T09:08:44.989Z,101285.02
2019-02-24T09:11:15.793Z,101285.26
2019-02-24T09:13:46.786Z,101287.20
2019-02-24T09:16:17.675Z,101291.19
2019-02-24T09:18:48.527Z,101293.84
2019-02-24T09:21:19.502Z,101298.77
2019-02-24T09:23:50.719Z,101302.03
2019-02-24T09:26:21.617Z,101301.80
2019-02-24T09:28:52.721Z,101298.72
2019-02-24T09:31:23.507Z,101296.28
2019-02-24T09:33:54.453Z,101297.17
2019-02-24T09:36:26.369Z,101305.43
2019-02-24T09:38:57.143Z,101304.25
2019-02-24T09:41:28.128Z,101295.77
2019-02-24T09:43:59.913Z,101301.34
2019-02-24T09:46:30.884Z,101299.36
2019-02-24T09:49:02.135Z,101295.09
2019-02-24T09:51:32.956Z,101293.14
2019-02-24T09:54:03.843Z,101291.67
2019-02-24T09:56:34.749Z,101279.12
2019-02-24T09:59:06.754Z,101283.05
2019-02-24T10:01:37.746Z,101276.03
2019-02-24T10:04:08.758Z,101284.34
2019-02-24T10:06:39.901Z,101275.94
2019-02-24T10:09:10.826Z,101276.71
2019-02-24T10:11:41.418Z,101267.31
2019-02-24T10:14:12.245Z,101266.77
2019-02-24T10:16:43.342Z,101270.91
2019-02-24T10:19:14.310Z,101263.73
2019-02-24T10:21:45.290Z,101264.09
2019-02-24T10:24:16.440Z,101263.06
2019-02-24T10:26:47.410Z,101263.63
2019-02-24T10:29:18.482Z,101248.87
2019-02-24T10:32:38.265Z,101251.20
2019-02-24T10:35:10.945Z,101242.82
2019-02-24T10:37:41.894Z,101241.81
2019-02-24T10:40:13.881Z,101244.62
2019-02-24T10:42:45.815Z,101243.84
2019-02-24T10:45:16.841Z,101247.48
2019-02-24T10:47:47.893Z,101252.52
2019-02-24T10:50:18.782Z,101240.55
2019-02-24T10:52:49.576Z,101231.31
2019-02-24T10:55:20.559Z,101233.96
2019-02-24T10:57:51.351Z,101237.44
2019-02-24T11:00:22.741Z,101231.59
2019-02-24T11:02:53.513Z,101227.27
2019-02-24T11:05:24.420Z,101225.56
2019-02-24T11:07:55.302Z,101216.53
2019-02-24T11:10:26.338Z,101227.64
2019-02-24T11:12:57.166Z,101236.52
2019-02-24T11:15:28.134Z,101239.07
2019-02-24T11:17:59.014Z,101242.49
2019-02-24T11:20:29.904Z,101238.11
2019-02-24T11:23:00.874Z,101240.52
2019-02-24T11:25:31.758Z,101236.77
2019-02-24T11:28:02.884Z,101237.75
2019-02-24T11:30:33.921Z,101233.63
2019-02-24T11:33:04.945Z,101231.53
2019-02-24T11:35:36.862Z,101219.09
2019-02-24T11:38:07.730Z,101219.14
2019-02-24T11:40:38.721Z,101216.93
2019-02-24T11:43:09.734Z,101211.52
2019-02-24T11:45:40.504Z,101212.81
2019-02-24T11:48:11.418Z,101209.04
2019-02-24T11:50:42.289Z,101199.33
2019-02-24T11:53:13.270Z,101202.59
2019-02-24T11:55:44.052Z,101198.31
2019-02-24T11:58:14.954Z,101193.28
2019-02-24T12:00:45.818Z,101192.77
2019-02-24T12:03:17.765Z,101184.59
2019-02-24T12:05:48.629Z,101183.11
2019-02-24T12:08:21.021Z,101178.69
2019-02-24T12:10:51.930Z,101172.73
2019-02-24T12:13:22.922Z,101169.49
2019-02-24T12:15:54.830Z,101166.23
2019-02-24T12:18:26.633Z,101167.72
2019-02-24T12:20:57.641Z,101163.30
2019-02-24T12:23:28.624Z,101167.91
2019-02-24T12:25:59.516Z,101160.42
2019-02-24T12:28:30.528Z,101164.64
2019-02-24T12:31:02.520Z,101155.58
2019-02-24T12:33:33.409Z,101157.29
2019-02-24T12:36:04.202Z,101153.45
2019-02-24T12:38:35.480Z,101155.97
2019-02-24T12:41:06.275Z,101156.66
2019-02-24T12:43:38.199Z,101150.32
2019-02-24T12:46:08.980Z,101146.98
2019-02-24T12:48:40.266Z,101144.98
2019-02-24T12:51:11.430Z,101143.13
2019-02-24T12:53:42.346Z,101143.32
2019-02-24T12:56:14.855Z,101141.97
2019-02-24T12:58:46.166Z,101139.98
2019-02-24T13:01:17.069Z,101141.33
2019-02-24T13:03:48.239Z,101144.02
2019-02-24T13:06:20.164Z,101143.53
2019-02-24T13:08:51.050Z,101135.14
2019-02-24T13:11:22.010Z,101143.38
2019-02-24T13:13:52.997Z,101139.99
2019-02-24T13:16:23.934Z,101127.41
2019-02-24T13:18:55.421Z,101122.19
2019-02-24T13:21:49.045Z,101124.87
2019-02-24T13:24:25.978Z,101121.52
2019-02-24T13:26:56.873Z,101121.16
2019-02-24T13:29:27.855Z,101118.65
2019-02-24T13:31:58.735Z,101116.45
2019-02-24T13:34:30.809Z,101118.13
2019-02-24T13:37:01.745Z,101111.56
2019-02-24T13:39:32.724Z,101111.25
2019-02-24T13:42:03.619Z,101106.35
2019-02-24T13:44:34.755Z,101108.52
2019-02-24T13:47:05.717Z,101105.00
2019-02-24T13:49:36.699Z,101098.09
2019-02-24T13:52:07.477Z,101096.75
2019-02-24T13:54:38.454Z,101094.05
2019-02-24T13:57:09.354Z,101099.37
2019-02-24T13:59:40.267Z,101097.34
2019-02-24T14:02:11.039Z,101106.23
2019-02-24T14:04:41.908Z,101098.64
2019-02-24T14:07:12.699Z,101086.98
2019-02-24T14:09:43.646Z,101093.17
2019-02-24T14:12:14.586Z,101099.08
2019-02-24T14:14:49.080Z,101086.61
2019-02-24T14:17:17.954Z,101086.11
2019-02-24T14:19:49.443Z,101092.86
2019-02-24T14:22:20.323Z,101088.23
2019-02-24T14:24:51.935Z,101090.56
2019-02-24T14:27:22.903Z,101087.87
2019-02-24T14:29:53.708Z,101085.16
2019-02-24T14:32:32.729Z,101084.14
2019-02-24T14:34:57.186Z,101080.05
2019-02-24T14:37:27.970Z,101082.44
2019-02-24T14:39:58.899Z,101080.73
2019-02-24T14:42:29.902Z,101077.21
2019-02-24T14:45:00.763Z,101085.27
2019-02-24T14:47:31.603Z,101074.38
2019-02-24T14:50:02.699Z,101073.49
2019-02-24T14:52:33.487Z,101073.59
2019-02-24T14:55:04.588Z,101073.07
2019-02-24T14:57:35.807Z,101069.36
2019-02-24T15:00:07.850Z,101074.52
2019-02-24T15:02:42.541Z,101086.50
2019-02-24T15:05:11.983Z,101082.04
2019-02-24T15:07:44.179Z,101083.78
2019-02-24T15:10:15.706Z,101087.64
2019-02-24T15:12:46.699Z,101082.44
2019-02-24T15:15:18.711Z,101088.06
2019-02-24T15:17:49.493Z,101086.91
2019-02-24T15:20:20.805Z,101093.87
2019-02-24T15:22:51.611Z,101093.87
2019-02-24T15:25:22.598Z,101097.30
2019-02-24T15:27:53.483Z,101093.17
2019-02-24T15:30:29.719Z,101092.88
2019-02-24T15:33:00.783Z,101090.03
2019-02-24T15:35:31.776Z,101090.77
2019-02-24T15:38:02.685Z,101088.25
2019-02-24T15:40:33.623Z,101091.88
2019-02-24T15:43:04.503Z,101083.78
2019-02-24T15:45:35.436Z,101076.72
2019-02-24T15:48:06.323Z,101081.34
2019-02-24T15:50:37.301Z,101079.92
2019-02-24T15:53:08.196Z,101082.25
2019-02-24T15:55:39.136Z,101079.64
2019-02-24T15:58:10.135Z,101076.18
2019-02-24T16:00:41.231Z,101073.19
2019-02-24T16:03:13.123Z,101072.52
2019-02-24T16:05:43.920Z,101078.50
2019-02-24T16:08:14.824Z,101069.30
2019-02-24T16:10:45.588Z,101068.80
2019-02-24T16:13:17.271Z,101080.61
2019-02-24T16:15:48.181Z,101078.41
2019-02-24T16:18:19.091Z,101078.41
2019-02-24T16:20:50.032Z,101070.87
2019-02-24T16:23:20.851Z,101072.37
2019-02-24T16:25:51.643Z,101079.67
2019-02-24T16:28:22.365Z,101073.84
2019-02-24T16:30:53.315Z,101072.17
2019-02-24T16:33:24.380Z,101073.06
2019-02-24T16:35:55.173Z,101069.05
2019-02-24T16:38:26.062Z,101058.30
2019-02-24T16:40:57.066Z,101064.20
2019-02-24T16:43:27.962Z,101066.01
2019-02-24T16:45:58.722Z,101067.63
2019-02-24T16:48:29.631Z,101073.45
2019-02-24T16:51:00.409Z,101073.89
2019-02-24T16:53:31.692Z,101079.38
2019-02-24T16:56:02.990Z,101086.06
2019-02-24T16:58:33.934Z,101079.09
2019-02-24T17:01:05.169Z,101070.93
2019-02-24T17:03:36.187Z,101066.52
2019-02-24T17:06:07.313Z,101068.52
2019-02-24T17:08:38.429Z,101078.85
2019-02-24T17:11:09.372Z,101075.97
2019-02-24T17:13:40.250Z,101083.12
2019-02-24T17:16:11.129Z,101082.97
2019-02-24T17:18:42.022Z,101086.95
2019-02-24T17:21:12.908Z,101090.28
2019-02-24T17:23:49.672Z,101096.95
2019-02-24T17:26:16.221Z,101100.08
2019-02-24T17:28:47.107Z,101100.03
2019-02-24T17:31:17.994Z,101102.50
2019-02-24T17:33:48.979Z,101111.11
2019-02-24T17:36:19.942Z,101113.11
2019-02-24T17:38:50.849Z,101110.20
2019-02-24T17:41:21.523Z,101112.94
2019-02-24T17:43:52.440Z,101113.20
2019-02-24T17:46:23.513Z,101117.55
2019-02-24T17:48:54.473Z,101124.44
2019-02-24T17:51:25.399Z,101124.65
2019-02-24T17:53:56.287Z,101123.00
2019-02-24T17:56:27.158Z,101125.50
2019-02-24T17:58:58.050Z,101131.98
2019-02-24T18:01:28.936Z,101135.13
2019-02-24T18:03:59.825Z,101124.69
2019-02-24T18:06:30.679Z,101126.10
2019-02-24T18:09:01.457Z,101125.49
2019-02-24T18:11:33.874Z,101130.63
2019-02-24T18:14:04.752Z,101129.69
2019-02-24T18:16:35.661Z,101133.28
2019-02-24T18:19:06.441Z,101139.48
2019-02-24T18:21:37.607Z,101142.64
2019-02-24T18:24:08.407Z,101149.22
2019-02-24T18:26:39.494Z,101147.97
2019-02-24T18:29:10.278Z,101150.84
2019-02-24T18:31:41.277Z,101142.56
2019-02-24T18:34:12.283Z,101141.38
2019-02-24T18:36:43.250Z,101140.34
2019-02-24T18:39:14.317Z,101141.27
2019-02-24T18:41:46.227Z,101140.78
2019-02-24T18:44:17.104Z,101155.81
2019-02-24T18:46:47.889Z,101153.49
2019-02-24T18:49:18.926Z,101157.69
2019-02-24T18:51:49.553Z,101158.16
2019-02-24T18:54:20.447Z,101161.82
2019-02-24T18:56:51.268Z,101167.44
2019-02-24T18:59:22.056Z,101163.09
2019-02-24T19:01:53.022Z,101157.05
2019-02-24T19:04:23.851Z,101157.24
2019-02-24T19:06:54.850Z,101153.04
2019-02-24T19:09:25.606Z,101147.24
2019-02-24T19:11:56.403Z,101143.70
2019-02-24T19:14:27.173Z,101144.52
2019-02-24T19:16:58.094Z,101138.19
2019-02-24T19:19:28.869Z,101136.36
2019-02-24T19:21:59.708Z,101128.16
2019-02-24T19:24:30.582Z,101121.67
2019-02-24T19:27:01.539Z,101118.81
2019-02-24T19:29:32.442Z,101121.56
2019-02-24T19:32:03.240Z,101116.94
2019-02-24T19:34:34.135Z,101117.42
2019-02-24T19:37:04.926Z,101119.98
2019-02-24T19:39:35.801Z,101122.98
2019-02-24T19:42:06.745Z,101117.42
2019-02-24T19:44:37.965Z,101121.11
2019-02-24T19:47:08.785Z,101120.55
2019-02-24T19:49:39.564Z,101133.83
2019-02-24T19:52:10.393Z,101124.92
2019-02-24T19:54:41.190Z,101124.64
2019-02-24T19:57:12.531Z,101131.22
2019-02-24T19:59:43.464Z,101124.53
2019-02-24T20:02:14.444Z,101120.64
2019-02-24T20:04:46.163Z,101122.06
2019-02-24T20:07:16.851Z,101125.43
2019-02-24T20:09:47.725Z,101122.63
2019-02-24T20:12:18.922Z,101123.34
2019-02-24T20:14:49.833Z,101132.12
2019-02-24T20:17:20.801Z,101129.73
2019-02-24T20:19:51.584Z,101122.66
2019-02-24T20:22:22.628Z,101125.91
2019-02-24T20:24:53.666Z,101119.58
2019-02-24T20:27:24.562Z,101120.30
2019-02-24T20:29:55.458Z,101116.13
2019-02-24T20:32:26.437Z,101114.56
2019-02-24T20:34:57.339Z,101104.42
2019-02-24T20:37:28.315Z,101105.41
2019-02-24T20:39:59.091Z,101113.48
2019-02-24T20:42:29.999Z,101112.53
2019-02-24T20:45:00.882Z,101116.46
2019-02-24T20:47:32.246Z,101124.53
2019-02-24T20:50:03.057Z,101125.89
2019-02-24T20:52:33.889Z,101119.91
2019-02-24T20:55:04.974Z,101125.14
2019-02-24T20:57:35.867Z,101125.91
2019-02-24T21:00:11.162Z,101126.59
2019-02-24T21:02:42.461Z,101120.30
2019-02-24T21:05:13.646Z,101125.03
2019-02-24T21:07:44.456Z,101128.77
2019-02-24T21:10:15.617Z,101121.26
2019-02-24T21:12:46.435Z,101129.98
2019-02-24T21:15:17.536Z,101122.76
2019-02-24T21:17:48.392Z,101125.31
2019-02-24T21:20:21.139Z,101130.95
2019-02-24T21:22:52.032Z,101132.27
2019-02-24T21:25:22.997Z,101132.90
2019-02-24T21:27:54.427Z,101144.39
2019-02-24T21:30:26.661Z,101140.91
2019-02-24T21:32:57.660Z,101139.66
2019-02-24T21:35:28.454Z,101148.52
2019-02-24T21:37:59.436Z,101150.55
2019-02-24T21:40:30.323Z,101147.91
2019-02-24T21:43:01.435Z,101140.75
2019-02-24T21:45:32.315Z,101135.77
2019-02-24T21:48:03.191Z,101130.75
2019-02-24T21:50:34.137Z,101126.41
2019-02-24T21:53:05.013Z,101126.53
2019-02-24T21:55:36.424Z,101129.93
2019-02-24T21:58:07.262Z,101131.39
2019-02-24T22:00:38.237Z,101126.92
2019-02-24T22:03:09.231Z,101125.34
2019-02-24T22:05:40.131Z,101114.09
2019-02-24T22:08:11.308Z,101112.50
2019-02-24T22:10:42.098Z,101117.81
2019-02-24T22:13:13.012Z,101123.02
2019-02-24T22:15:43.890Z,101132.55
2019-02-24T22:18:14.763Z,101132.42
2019-02-24T22:20:45.548Z,101121.31
2019-02-24T22:23:17.004Z,101127.24
2019-02-24T22:25:47.839Z,101122.31
2019-02-24T22:28:19.014Z,101132.02
2019-02-24T22:30:49.837Z,101131.66
2019-02-24T22:33:22.537Z,101131.17
2019-02-24T22:35:53.438Z,101129.64
2019-02-24T22:38:24.624Z,101125.91
2019-02-24T22:40:55.410Z,101117.08
2019-02-24T22:43:26.600Z,101119.13
2019-02-24T22:45:57.391Z,101112.83
2019-02-24T22:48:28.300Z,101119.35
2019-02-24T22:50:59.166Z,101118.87
2019-02-24T22:53:30.000Z,101126.24
2019-02-24T22:56:00.887Z,101122.70
2019-02-24T22:58:31.676Z,101131.19
2019-02-24T23:01:15.217Z,101125.28
2019-02-24T23:03:48.104Z,101123.11
2019-02-24T23:06:19.079Z,101124.89
2019-02-24T23:08:49.978Z,101116.33
2019-02-24T23:11:21.071Z,101116.59
2019-02-24T23:13:51.870Z,101112.95
2019-02-24T23:16:22.856Z,101119.98
2019-02-24T23:18:53.746Z,101115.98
2019-02-24T23:21:24.621Z,101121.53
2019-02-24T23:23:55.396Z,101120.45
2019-02-24T23:26:26.290Z,101109.23
2019-02-24T23:28:57.070Z,101111.37
2019-02-24T23:31:28.117Z,101114.88
2019-02-24T23:33:58.965Z,101110.55
2019-02-24T23:36:30.332Z,101104.98
2019-02-24T23:39:01.241Z,101107.16
2019-02-24T23:41:33.581Z,101101.37
2019-02-24T23:44:04.464Z,101105.95
2019-02-24T23:46:35.447Z,101101.69
2019-02-24T23:49:06.321Z,101110.27
2019-02-24T23:51:37.395Z,101114.39
2019-02-24T23:54:08.199Z,101109.92
2019-02-24T23:56:39.807Z,101112.14
2019-02-24T23:59:10.891Z,101107.45
